Time;durP1;ratioP1;P1;durP2;ratioP2;P2;SDS_P1;SDS_P2;PMS_P1;PMS_P2;Temp;Humidity;BMP_temperature;BMP_pressure;BME280_temperature;BME280_humidity;BME280_pressure;Samples;Min_cycle;Max_cycle;Signal;HPM_P1;HPM_P2
2022/05/14 00:00:48;;;;;;;2.30;1.30;;;16.70;72.50;;;;;;10535923;28;20380;-65
2022/05/14 00:05:49;;;;;;;7.38;1.75;;;16.70;72.50;;;;;;10535578;28;20028;-67
2022/05/14 00:16:11;;;;;;;3.85;1.30;;;16.60;72.40;;;;;;10535743;28;20044;-67
2022/05/14 00:21:12;;;;;;;2.97;1.20;;;16.60;72.40;;;;;;10540316;28;20033;-64
2022/05/14 00:26:14;;;;;;;4.47;1.48;;;16.60;72.40;;;;;;10543873;28;20032;-66
2022/05/14 00:31:16;;;;;;;4.65;1.65;;;16.60;72.40;;;;;;10543518;28;20040;-66
2022/05/14 00:36:17;;;;;;;2.90;1.23;;;16.60;72.50;;;;;;10544028;28;20042;-66
2022/05/14 00:41:17;;;;;;;3.80;1.70;;;16.60;72.50;;;;;;10543597;28;20469;-65
2022/05/14 00:46:32;;;;;;;3.00;1.33;;;16.50;72.40;;;;;;10542542;28;20039;-67
2022/05/14 00:51:33;;;;;;;3.28;1.25;;;16.50;72.40;;;;;;10542390;28;20044;-61
2022/05/14 00:56:46;;;;;;;2.50;1.48;;;16.50;72.50;;;;;;10542463;28;20050;-63
2022/05/14 01:01:48;;;;;;;3.58;1.48;;;16.50;72.50;;;;;;10542518;28;20123;-63
2022/05/14 01:07:00;;;;;;;4.72;1.30;;;16.40;72.40;;;;;;10541925;28;20036;-67
2022/05/14 01:12:03;;;;;;;2.95;1.20;;;16.40;72.50;;;;;;10541974;28;20496;-66
2022/05/14 01:17:04;;;;;;;2.03;1.42;;;16.40;72.50;;;;;;10541429;28;20042;-67
2022/05/14 01:22:17;;;;;;;2.75;1.25;;;16.40;72.60;;;;;;10541902;28;20491;-66
2022/05/14 01:27:18;;;;;;;6.78;1.50;;;16.40;72.70;;;;;;10541162;28;20051;-66
2022/05/14 01:32:19;;;;;;;4.60;1.20;;;16.30;72.70;;;;;;10540902;28;20577;-66
2022/05/14 01:37:20;;;;;;;2.28;1.20;;;16.30;72.80;;;;;;10540606;28;20123;-66
2022/05/14 01:42:21;;;;;;;5.50;1.60;;;16.30;72.80;;;;;;10541048;28;20529;-67
2022/05/14 01:47:22;;;;;;;3.95;1.67;;;16.20;72.90;;;;;;10540332;28;20135;-66
2022/05/14 01:52:22;;;;;;;3.50;1.20;;;16.20;72.90;;;;;;10540149;28;20056;-66
2022/05/14 01:57:23;;;;;;;4.10;1.40;;;16.20;73.00;;;;;;10539797;28;20032;-66
2022/05/14 02:02:24;;;;;;;5.00;1.48;;;16.20;73.00;;;;;;10539962;28;20038;-66
2022/05/14 02:07:25;;;;;;;4.68;1.40;;;16.20;73.10;;;;;;10539776;28;20059;-67
2022/05/14 02:12:25;;;;;;;3.80;1.20;;;16.10;73.20;;;;;;10539545;28;20032;-65
2022/05/14 02:17:26;;;;;;;3.58;1.40;;;16.10;73.20;;;;;;10539353;28;20039;-66
2022/05/14 02:22:27;;;;;;;5.05;1.50;;;16.10;73.30;;;;;;10539018;28;20137;-64
2022/05/14 02:27:28;;;;;;;5.25;1.55;;;16.10;73.40;;;;;;10538839;28;20048;-62
2022/05/14 02:32:28;;;;;;;6.55;1.48;;;16.10;73.40;;;;;;10538728;28;20437;-64
2022/05/14 02:37:29;;;;;;;5.47;1.50;;;16.10;73.50;;;;;;10538075;28;20042;-65
2022/05/14 02:42:30;;;;;;;2.67;1.38;;;16.10;73.50;;;;;;10537381;28;20028;-63
2022/05/14 02:47:32;;;;;;;4.18;1.42;;;16.00;73.60;;;;;;10538013;28;20047;-66
2022/05/14 02:52:33;;;;;;;4.13;1.50;;;16.00;73.60;;;;;;10537452;28;20048;-66
2022/05/14 02:57:35;;;;;;;3.58;1.60;;;16.00;73.70;;;;;;10519108;28;20502;-65
2022/05/14 03:02:36;;;;;;;3.40;1.50;;;16.00;73.80;;;;;;10519042;28;20529;-66
2022/05/14 03:07:36;;;;;;;4.28;1.80;;;16.00;73.90;;;;;;10536917;28;20044;-66
2022/05/14 03:12:37;;;;;;;6.38;2.13;;;16.00;74.00;;;;;;10537075;28;20032;-66
2022/05/14 03:17:38;;;;;;;5.60;1.98;;;15.90;74.00;;;;;;10536999;28;20060;-66
2022/05/14 03:22:40;;;;;;;5.38;1.70;;;15.90;74.10;;;;;;10536894;28;20020;-64
2022/05/14 03:27:41;;;;;;;4.90;1.60;;;15.90;74.30;;;;;;10536469;28;20098;-66
2022/05/14 03:32:42;;;;;;;3.78;1.58;;;15.90;74.30;;;;;;10536609;28;20080;-65
2022/05/14 03:37:43;;;;;;;4.50;1.63;;;15.80;74.40;;;;;;10536915;28;20040;-66
2022/05/14 03:42:45;;;;;;;5.20;1.48;;;15.80;74.40;;;;;;10536394;28;20036;-66
2022/05/14 03:47:46;;;;;;;2.78;1.30;;;15.80;74.50;;;;;;10535968;28;20763;-66
2022/05/14 03:52:46;;;;;;;5.40;1.50;;;15.80;74.50;;;;;;10535847;28;20127;-66
2022/05/14 03:57:47;;;;;;;4.70;1.70;;;15.80;74.60;;;;;;10535778;28;20485;-65
2022/05/14 04:02:48;;;;;;;3.55;1.52;;;15.80;74.70;;;;;;10535742;28;20560;-65
2022/05/14 04:07:48;;;;;;;5.57;1.70;;;15.70;74.70;;;;;;10535782;28;20052;-66
2022/05/14 04:12:49;;;;;;;4.03;1.70;;;15.70;74.70;;;;;;10535677;28;20064;-64
2022/05/14 04:17:54;;;;;;;5.40;1.40;;;15.70;74.70;;;;;;10535566;28;20036;-64
2022/05/14 04:22:56;;;;;;;4.43;1.80;;;15.70;74.80;;;;;;10535635;28;20162;-65
2022/05/14 04:27:57;;;;;;;6.80;1.83;;;15.70;74.80;;;;;;10535258;28;20056;-66
2022/05/14 04:32:58;;;;;;;4.28;1.85;;;15.70;74.80;;;;;;10535431;28;20029;-66
2022/05/14 04:37:59;;;;;;;6.53;1.95;;;15.60;74.80;;;;;;10535271;28;20040;-63
2022/05/14 04:43:00;;;;;;;8.48;1.90;;;15.60;74.80;;;;;;10535401;28;20036;-65
2022/05/14 04:48:01;;;;;;;8.40;1.75;;;15.60;74.90;;;;;;10534926;28;20040;-66
2022/05/14 04:53:02;;;;;;;5.72;1.58;;;15.60;74.90;;;;;;10534770;28;20036;-67
2022/05/14 04:58:03;;;;;;;4.53;1.60;;;15.60;74.90;;;;;;10534622;28;20115;-66
2022/05/14 05:03:16;;;;;;;6.20;1.90;;;15.60;74.90;;;;;;10534648;28;20032;-66
2022/05/14 05:08:18;;;;;;;5.20;2.17;;;15.60;74.90;;;;;;10540246;28;20400;-66
2022/05/14 05:13:24;;;;;;;6.78;2.00;;;15.60;75.00;;;;;;10541910;28;20042;-65
2022/05/14 05:18:25;;;;;;;6.35;1.73;;;15.60;75.00;;;;;;10541766;28;20455;-65
2022/05/14 05:23:27;;;;;;;2.70;1.65;;;15.50;74.90;;;;;;10541564;28;20052;-66
2022/05/14 05:28:28;;;;;;;4.35;1.70;;;15.60;75.00;;;;;;10541267;28;20102;-67
2022/05/14 05:33:28;;;;;;;5.40;1.67;;;15.60;75.00;;;;;;10540994;28;20062;-66
2022/05/14 05:38:29;;;;;;;5.20;2.08;;;15.60;75.00;;;;;;10541270;28;20381;-65
2022/05/14 05:43:30;;;;;;;3.78;1.63;;;15.50;75.00;;;;;;10540564;28;20036;-63
2022/05/14 05:48:31;;;;;;;4.50;1.70;;;15.60;75.10;;;;;;10540392;28;20051;-65
2022/05/14 05:58:51;;;;;;;6.95;2.00;;;15.60;75.10;;;;;;10540107;28;20081;-66
2022/05/14 06:03:52;;;;;;;6.93;2.00;;;15.60;75.20;;;;;;10540050;28;20174;-67
2022/05/14 06:08:54;;;;;;;4.50;1.95;;;15.60;75.20;;;;;;10539368;28;20056;-66
2022/05/14 06:13:55;;;;;;;5.43;2.00;;;15.60;75.30;;;;;;10539259;28;20060;-66
2022/05/14 06:18:56;;;;;;;6.10;1.92;;;15.60;75.30;;;;;;10538190;28;20044;-63
2022/05/14 06:23:56;;;;;;;5.38;2.58;;;15.60;75.40;;;;;;10538909;28;20122;-66
2022/05/14 06:28:59;;;;;;;6.53;2.17;;;15.60;75.40;;;;;;10538480;28;20127;-66
2022/05/14 06:34:00;;;;;;;5.88;2.10;;;15.60;75.40;;;;;;10538992;28;20036;-64
2022/05/14 06:39:01;;;;;;;9.30;2.28;;;15.60;75.50;;;;;;10538552;28;20040;-66
2022/05/14 06:44:02;;;;;;;5.15;2.00;;;15.70;75.50;;;;;;10538705;28;20032;-65
2022/05/14 06:49:04;;;;;;;5.32;2.25;;;15.70;75.50;;;;;;10537996;28;20048;-64
2022/05/14 06:54:08;;;;;;;3.42;1.98;;;15.70;75.50;;;;;;10537645;28;20043;-64
2022/05/14 06:59:10;;;;;;;7.47;2.45;;;15.70;75.60;;;;;;10537819;28;20059;-65
2022/05/14 07:09:34;;;;;;;8.60;2.38;;;15.80;75.70;;;;;;10537299;28;20047;-64
2022/05/14 07:14:37;;;;;;;4.38;2.30;;;15.80;75.70;;;;;;10537038;28;20035;-66
2022/05/14 07:19:39;;;;;;;4.47;2.30;;;15.90;75.80;;;;;;10537000;28;20035;-66
2022/05/14 07:24:40;;;;;;;7.78;2.45;;;15.90;75.80;;;;;;10536735;28;20032;-65
2022/05/14 07:29:42;;;;;;;4.57;2.40;;;15.90;75.80;;;;;;10536035;28;20139;-66
2022/05/14 07:34:43;;;;;;;5.30;2.08;;;16.00;75.70;;;;;;10536724;28;20044;-62
2022/05/14 07:39:56;;;;;;;8.40;2.42;;;16.00;75.80;;;;;;10536625;28;20125;-67
2022/05/14 07:45:00;;;;;;;4.45;2.10;;;16.00;75.80;;;;;;10536185;28;20040;-66
2022/05/14 07:50:02;;;;;;;5.32;2.50;;;16.10;75.70;;;;;;10535803;28;20044;-66
2022/05/14 07:55:04;;;;;;;9.50;2.30;;;16.10;75.60;;;;;;10535707;28;20048;-63
2022/05/14 08:00:06;;;;;;;8.00;2.17;;;16.10;75.50;;;;;;10535787;28;20043;-65
2022/05/14 08:05:09;;;;;;;3.53;2.00;;;16.20;75.50;;;;;;10535503;28;20090;-66
2022/05/14 08:10:11;;;;;;;6.82;2.20;;;16.20;75.40;;;;;;10535900;28;20044;-66
2022/05/14 08:15:15;;;;;;;7.05;2.30;;;16.30;75.40;;;;;;10535373;28;20511;-68
2022/05/14 08:20:16;;;;;;;6.25;2.00;;;16.30;75.50;;;;;;10535509;28;20112;-66
2022/05/14 08:25:18;;;;;;;8.73;2.08;;;16.40;75.30;;;;;;10535294;28;20146;-66
2022/05/14 08:30:22;;;;;;;4.90;2.10;;;16.40;75.20;;;;;;10535103;28;20046;-65
2022/05/14 08:35:23;;;;;;;11.85;2.70;;;16.50;75.20;;;;;;10534914;28;20032;-65
2022/05/14 08:40:30;;;;;;;5.43;2.08;;;16.60;75.10;;;;;;10536510;28;20047;-66
2022/05/14 08:45:36;;;;;;;7.93;2.47;;;16.70;75.00;;;;;;10542887;28;20035;-66
2022/05/14 08:50:38;;;;;;;5.22;2.10;;;16.70;74.90;;;;;;10540244;28;20040;-65
2022/05/14 08:55:59;;;;;;;5.50;1.80;;;16.70;74.80;;;;;;10542530;28;20040;-66
2022/05/14 09:01:02;;;;;;;6.60;2.30;;;16.80;75.40;;;;;;10542718;28;20036;-64
2022/05/14 09:06:03;;;;;;;7.65;2.45;;;16.90;74.70;;;;;;10542417;28;20039;-65
2022/05/14 09:11:11;;;;;;;9.60;2.60;;;16.90;74.60;;;;;;10541898;28;20059;-65
2022/05/14 09:16:24;;;;;;;6.65;2.40;;;17.00;74.60;;;;;;10541736;28;20450;-66
2022/05/14 09:21:30;;;;;;;9.98;2.42;;;17.00;74.70;;;;;;10542013;28;20093;-66
2022/05/14 09:26:37;;;;;;;8.40;2.70;;;17.10;74.50;;;;;;10541271;28;20035;-65
2022/05/14 09:31:55;;;;;;;6.90;2.85;;;17.20;74.50;;;;;;10541497;28;20137;-64
2022/05/14 09:37:09;;;;;;;7.30;2.33;;;17.20;74.40;;;;;;10541517;28;20036;-66
2022/05/14 09:42:32;;;;;;;7.25;2.40;;;17.20;74.30;;;;;;10541419;28;20036;-65
2022/05/14 09:47:34;;;;;;;10.25;2.58;;;17.30;74.30;;;;;;10540556;28;20051;-65
2022/05/14 09:52:36;;;;;;;5.32;2.10;;;17.40;74.00;;;;;;10539990;28;20458;-65
2022/05/14 09:57:40;;;;;;;9.85;2.47;;;17.40;73.90;;;;;;10540100;28;20354;-64
2022/05/14 10:02:52;;;;;;;9.13;2.67;;;17.50;73.80;;;;;;10539955;28;20111;-62
2022/05/14 10:08:34;;;;;;;7.72;2.67;;;17.60;73.70;;;;;;10539751;28;20055;-66
2022/05/14 10:14:00;;;;;;;9.07;2.65;;;17.80;73.60;;;;;;10539496;28;20118;-66
2022/05/14 10:19:29;;;;;;;8.05;2.45;;;17.70;73.60;;;;;;10539226;28;20388;-62
2022/05/14 10:30:16;;;;;;;9.73;2.42;;;17.80;73.50;;;;;;10538857;28;20500;-64
2022/05/14 10:35:27;;;;;;;6.72;2.25;;;17.80;73.50;;;;;;10538650;28;20035;-65
2022/05/14 10:40:47;;;;;;;13.20;2.42;;;17.80;73.40;;;;;;10538629;28;20028;-65
2022/05/14 10:45:52;;;;;;;9.52;2.10;;;17.90;73.30;;;;;;10538174;28;20504;-60
2022/05/14 10:50:53;;;;;;;10.40;2.50;;;18.00;73.20;;;;;;10537771;28;20138;-65
2022/05/14 10:56:15;;;;;;;12.23;2.13;;;18.10;73.10;;;;;;10537706;28;20028;-65
2022/05/14 11:01:37;;;;;;;7.30;2.45;;;18.10;73.00;;;;;;10537757;28;20032;-66
2022/05/14 11:07:25;;;;;;;8.48;2.35;;;18.10;73.00;;;;;;10536992;28;20072;-66
2022/05/14 11:12:25;;;;;;;5.97;2.13;;;18.20;73.00;;;;;;10491266;28;20045;-65
2022/05/14 11:17:28;;;;;;;12.63;2.88;;;18.20;73.00;;;;;;10527780;28;20028;-65
2022/05/14 11:22:39;;;;;;;8.13;1.98;;;18.20;73.00;;;;;;10537103;28;20040;-65
2022/05/14 11:27:42;;;;;;;9.55;3.03;;;18.30;73.00;;;;;;10536681;28;20040;-62
2022/05/14 11:32:52;;;;;;;11.00;2.47;;;18.30;73.00;;;;;;10536785;28;20033;-66
2022/05/14 11:37:53;;;;;;;7.35;2.05;;;18.30;72.70;;;;;;10518313;28;20107;-65
2022/05/14 11:43:11;;;;;;;6.68;2.20;;;18.50;72.60;;;;;;10536356;28;20122;-66
2022/05/14 11:48:20;;;;;;;8.48;2.78;;;18.50;72.40;;;;;;10535969;28;20036;-66
2022/05/14 11:53:43;;;;;;;10.27;2.72;;;18.60;72.40;;;;;;10535733;28;20078;-64
2022/05/14 11:58:51;;;;;;;9.77;2.70;;;18.60;72.10;;;;;;10535512;28;20097;-64
2022/05/14 12:03:53;;;;;;;8.10;2.30;;;18.70;72.10;;;;;;10535824;28;20073;-66
2022/05/14 12:09:34;;;;;;;7.05;2.67;;;18.60;72.20;;;;;;10535480;28;20489;-66
2022/05/14 12:14:36;;;;;;;7.90;2.25;;;18.60;72.00;;;;;;10536144;28;20405;-62
2022/05/14 12:19:40;;;;;;;9.90;2.38;;;18.60;72.20;;;;;;10544099;28;20039;-65
2022/05/14 12:24:54;;;;;;;8.88;2.67;;;18.70;72.20;;;;;;10543741;28;20115;-64
2022/05/14 12:29:59;;;;;;;5.90;2.45;;;18.80;71.90;;;;;;10543775;28;20135;-66
2022/05/14 12:35:00;;;;;;;6.93;2.13;;;18.90;71.70;;;;;;10544221;28;20032;-65
2022/05/14 12:40:00;;;;;;;7.20;2.58;;;19.00;71.50;;;;;;10543290;28;20032;-64
2022/05/14 12:45:02;;;;;;;8.18;2.17;;;19.10;71.50;;;;;;10543066;28;20033;-66
2022/05/14 12:50:14;;;;;;;6.20;2.08;;;19.10;71.50;;;;;;10542787;28;20040;-62
2022/05/14 12:55:16;;;;;;;8.65;2.15;;;19.20;71.40;;;;;;10540272;28;20048;-66
2022/05/14 13:00:18;;;;;;;7.80;2.33;;;19.20;71.10;;;;;;10542882;28;20051;-66
2022/05/14 13:05:34;;;;;;;8.38;2.30;;;19.40;71.00;;;;;;10524066;28;20503;-66
2022/05/14 13:10:35;;;;;;;8.27;2.63;;;19.50;70.70;;;;;;10542246;28;20464;-66
2022/05/14 13:15:52;;;;;;;7.95;2.97;;;19.60;70.60;;;;;;10541938;28;20032;-66
2022/05/14 13:21:03;;;;;;;7.25;2.10;;;19.80;70.30;;;;;;10541803;28;20055;-66
2022/05/14 13:26:04;;;;;;;8.88;2.05;;;19.90;70.20;;;;;;10541171;28;20044;-66
2022/05/14 13:31:20;;;;;;;9.85;2.40;;;20.00;70.00;;;;;;10541277;28;20047;-62
2022/05/14 13:41:44;;;;;;;8.57;2.15;;;20.20;69.80;;;;;;10540950;28;20056;-66
2022/05/14 13:47:00;;;;;;;6.75;2.00;;;20.30;69.70;;;;;;10540791;28;20036;-63
2022/05/14 13:52:03;;;;;;;7.57;2.13;;;20.40;69.60;;;;;;10538174;28;20143;-66
2022/05/14 13:57:13;;;;;;;6.05;2.17;;;20.50;69.60;;;;;;10540110;28;20039;-65
2022/05/14 14:02:27;;;;;;;9.38;2.30;;;20.50;69.80;;;;;;10539735;28;20523;-65
2022/05/14 14:07:31;;;;;;;10.30;2.53;;;20.50;70.00;;;;;;10539528;28;20054;-65
2022/05/14 14:12:32;;;;;;;8.82;2.20;;;20.40;70.20;;;;;;10539452;28;20027;-65
2022/05/14 14:17:33;;;;;;;8.48;2.30;;;20.40;70.40;;;;;;10539394;28;20039;-65
2022/05/14 14:22:34;;;;;;;8.02;2.13;;;20.30;70.60;;;;;;10539014;28;20123;-62
2022/05/14 14:27:36;;;;;;;6.15;2.22;;;20.20;70.80;;;;;;10538843;28;20048;-67
2022/05/14 14:32:37;;;;;;;7.43;2.35;;;20.30;71.00;;;;;;10538635;28;20031;-65
2022/05/14 14:37:39;;;;;;;7.97;2.08;;;20.40;70.90;;;;;;10537299;28;20051;-65
2022/05/14 14:42:40;;;;;;;4.60;1.83;;;20.50;70.90;;;;;;10538089;28;20042;-66
2022/05/14 14:47:44;;;;;;;6.05;2.10;;;20.60;70.80;;;;;;10537601;28;20055;-67
2022/05/14 14:52:46;;;;;;;6.25;2.00;;;20.60;70.90;;;;;;10537844;28;20105;-64
2022/05/14 14:57:47;;;;;;;5.93;1.88;;;20.50;71.00;;;;;;10536647;28;20102;-66
2022/05/14 15:03:09;;;;;;;6.95;2.90;;;20.50;71.20;;;;;;10537574;28;20123;-62
2022/05/14 15:08:12;;;;;;;4.95;2.17;;;20.60;71.10;;;;;;10537208;28;20043;-64
2022/05/14 15:13:15;;;;;;;4.65;2.03;;;20.70;71.10;;;;;;10537181;28;20085;-64
2022/05/14 15:18:16;;;;;;;7.85;2.50;;;20.80;71.10;;;;;;10537159;28;20035;-65
2022/05/14 15:23:17;;;;;;;5.70;2.33;;;20.90;70.90;;;;;;10536841;28;20491;-65
2022/05/14 15:28:18;;;;;;;6.05;2.17;;;21.10;70.60;;;;;;10536010;28;20105;-64
2022/05/14 15:33:19;;;;;;;8.82;2.47;;;21.20;70.40;;;;;;10536292;28;20051;-61
2022/05/14 15:38:20;;;;;;;6.63;2.55;;;21.40;70.30;;;;;;10536087;28;20046;-64
2022/05/14 15:43:26;;;;;;;7.60;1.77;;;21.50;70.00;;;;;;10535825;28;20564;-66
2022/05/14 15:48:35;;;;;;;6.95;1.88;;;21.60;69.90;;;;;;10535725;28;20055;-62
2022/05/14 15:53:36;;;;;;;8.55;2.13;;;21.60;69.80;;;;;;10535503;28;20127;-65
2022/05/14 15:58:37;;;;;;;9.48;2.15;;;21.70;69.80;;;;;;10535626;28;20043;-59
2022/05/14 16:03:39;;;;;;;6.00;2.30;;;21.80;69.90;;;;;;10535441;28;20036;-63
2022/05/14 16:08:41;;;;;;;5.15;2.00;;;21.70;69.90;;;;;;10535293;28;20040;-59
2022/05/14 16:19:02;;;;;;;8.38;2.55;;;21.50;70.50;;;;;;10535229;28;20040;-65
2022/05/14 16:24:03;;;;;;;5.63;2.17;;;21.50;70.70;;;;;;10535194;28;20028;-65
2022/05/14 16:29:07;;;;;;;6.18;2.50;;;21.40;71.00;;;;;;10534245;28;20048;-65
2022/05/14 16:34:08;;;;;;;5.55;2.35;;;21.40;71.30;;;;;;10535005;28;20389;-66
2022/05/14 16:39:09;;;;;;;4.68;1.90;;;21.30;71.40;;;;;;10516900;28;20036;-66
2022/05/14 16:44:10;;;;;;;6.75;2.08;;;21.30;72.20;;;;;;10534272;28;20040;-65
2022/05/14 16:49:12;;;;;;;5.95;2.08;;;21.20;71.70;;;;;;10534226;28;20040;-60
2022/05/14 16:54:15;;;;;;;7.32;2.42;;;21.20;71.70;;;;;;10515998;28;20043;-66
2022/05/14 16:59:16;;;;;;;6.13;2.42;;;21.20;72.40;;;;;;10516472;28;20078;-66
2022/05/14 17:04:17;;;;;;;4.82;2.00;;;21.10;71.80;;;;;;10540793;28;20032;-62
2022/05/14 17:09:18;;;;;;;5.55;2.13;;;21.10;71.80;;;;;;10541857;28;20131;-66
2022/05/14 17:14:19;;;;;;;6.75;2.20;;;21.10;72.00;;;;;;10523697;28;20376;-65
2022/05/14 17:19:21;;;;;;;7.97;2.08;;;21.00;72.00;;;;;;10541832;28;20387;-63
2022/05/14 17:24:23;;;;;;;6.40;2.50;;;21.00;72.20;;;;;;10541662;28;20047;-65
2022/05/14 17:29:24;;;;;;;7.72;2.20;;;20.90;72.20;;;;;;10541140;28;20044;-64
2022/05/14 17:34:24;;;;;;;5.53;2.13;;;20.90;72.30;;;;;;10541139;28;20028;-66
2022/05/14 17:39:44;;;;;;;8.65;2.25;;;20.80;72.30;;;;;;10540928;28;20062;-66
2022/05/14 17:44:46;;;;;;;4.22;1.73;;;20.80;72.40;;;;;;10540573;28;20139;-60
2022/05/14 17:49:49;;;;;;;3.47;1.70;;;20.80;72.30;;;;;;10541047;28;20040;-66
2022/05/14 17:54:50;;;;;;;6.00;2.10;;;20.70;72.40;;;;;;10539974;28;20100;-61
2022/05/14 17:59:51;;;;;;;4.70;2.30;;;20.70;72.40;;;;;;10539883;28;20032;-67
2022/05/14 18:04:52;;;;;;;5.50;2.15;;;20.60;72.50;;;;;;10540089;28;20116;-60
2022/05/14 18:09:52;;;;;;;8.25;2.53;;;20.60;72.50;;;;;;10539481;28;20202;-61
2022/05/14 18:14:53;;;;;;;4.93;2.03;;;20.50;72.70;;;;;;10539518;28;20028;-62
2022/05/14 18:19:55;;;;;;;7.25;2.13;;;20.50;72.70;;;;;;10539663;28;20404;-62
2022/05/14 18:24:55;;;;;;;5.50;2.15;;;20.40;72.70;;;;;;10539304;28;20037;-61
2022/05/14 18:30:00;;;;;;;6.40;2.58;;;20.30;72.80;;;;;;10539051;28;20098;-66
2022/05/14 18:35:03;;;;;;;6.53;2.45;;;20.30;72.90;;;;;;10538878;28;20035;-59
2022/05/14 18:40:10;;;;;;;5.57;2.10;;;20.20;72.90;;;;;;10538776;28;20111;-59
2022/05/14 18:45:13;;;;;;;5.13;2.47;;;20.20;73.00;;;;;;10538347;28;20032;-62
2022/05/14 18:50:14;;;;;;;5.57;1.83;;;20.10;73.20;;;;;;10538453;28;20059;-67
2022/05/14 18:55:15;;;;;;;4.70;2.10;;;20.10;73.30;;;;;;10533777;28;20044;-66
2022/05/14 19:00:17;;;;;;;5.47;2.40;;;20.00;73.40;;;;;;10538238;28;20081;-60
2022/05/14 19:10:39;;;;;;;7.50;2.67;;;19.90;73.50;;;;;;10537800;28;20052;-66
2022/05/14 19:15:41;;;;;;;6.25;2.03;;;19.90;73.60;;;;;;10537508;28;20400;-61
2022/05/14 19:20:43;;;;;;;7.30;2.40;;;19.90;73.70;;;;;;10537241;28;20059;-63
2022/05/14 19:25:43;;;;;;;9.75;2.50;;;19.80;73.70;;;;;;10536709;28;20613;-61
2022/05/14 19:30:45;;;;;;;7.97;2.60;;;19.70;73.60;;;;;;10536862;28;20043;-60
2022/05/14 19:35:49;;;;;;;7.03;2.67;;;19.70;73.70;;;;;;10536674;28;20059;-61
2022/05/14 19:40:56;;;;;;;8.50;2.70;;;19.70;73.80;;;;;;10536388;28;20031;-65
2022/05/14 19:45:59;;;;;;;10.32;2.80;;;19.60;73.70;;;;;;10518513;28;20114;-64
2022/05/14 19:50:59;;;;;;;7.13;2.28;;;19.50;73.80;;;;;;10535995;28;20040;-63
2022/05/14 19:56:00;;;;;;;8.30;2.53;;;19.50;73.80;;;;;;10536192;28;20097;-58
2022/05/14 20:01:03;;;;;;;7.25;2.83;;;19.40;73.70;;;;;;10535976;28;20044;-63
2022/05/14 20:06:05;;;;;;;9.93;2.53;;;19.40;73.70;;;;;;10535668;28;20036;-65
2022/05/14 20:11:07;;;;;;;8.27;2.53;;;19.40;74.40;;;;;;10535992;28;20420;-67
2022/05/14 20:20:48;;;;;;;10.88;2.90;;;19.30;73.70;;;;;;10535840;28;20128;-59
2022/05/14 20:21:28;;;;;;;7.50;2.75;;;19.30;73.80;;;;;;10535488;28;20112;-66
2022/05/14 20:26:29;;;;;;;10.45;2.90;;;19.20;73.70;;;;;;10535512;28;20523;-61
2022/05/14 20:31:30;;;;;;;7.30;2.58;;;19.20;73.80;;;;;;10535362;28;20085;-59
2022/05/14 20:36:30;;;;;;;8.00;2.90;;;19.10;73.70;;;;;;10537189;28;20047;-64
2022/05/14 20:41:31;;;;;;;8.43;3.10;;;19.10;73.80;;;;;;10543409;28;20438;-66
2022/05/14 20:46:32;;;;;;;10.43;3.25;;;19.10;73.80;;;;;;10543628;28;20111;-64
2022/05/14 20:51:33;;;;;;;11.32;3.22;;;19.00;73.80;;;;;;10542931;28;20048;-62
2022/05/14 20:56:34;;;;;;;10.60;2.95;;;19.00;73.80;;;;;;10543062;28;20043;-61
2022/05/14 21:01:35;;;;;;;6.97;3.10;;;19.00;73.90;;;;;;10543083;28;20530;-59
2022/05/14 21:06:35;;;;;;;9.93;2.92;;;18.90;73.80;;;;;;10542594;28;20117;-60
2022/05/14 21:11:36;;;;;;;13.40;3.63;;;18.90;73.90;;;;;;10542279;28;20055;-61
2022/05/14 21:16:48;;;;;;;12.77;3.28;;;18.80;73.90;;;;;;10542142;28;20029;-60
2022/05/14 21:21:50;;;;;;;13.45;3.65;;;18.80;73.90;;;;;;10541983;28;20484;-65
2022/05/14 21:26:51;;;;;;;9.95;3.22;;;18.80;73.90;;;;;;10541902;28;20093;-66
2022/05/14 21:31:52;;;;;;;11.02;3.22;;;18.70;73.90;;;;;;10541496;28;20131;-60
2022/05/14 21:42:12;;;;;;;8.60;3.30;;;18.60;73.90;;;;;;10540991;28;20093;-66
2022/05/14 21:47:13;;;;;;;11.27;4.13;;;18.60;73.90;;;;;;10540683;28;20081;-58
2022/05/14 21:52:14;;;;;;;9.48;3.58;;;18.60;73.90;;;;;;10540455;28;20170;-62
2022/05/14 21:57:16;;;;;;;10.52;3.95;;;18.50;73.90;;;;;;10540590;28;20415;-67
2022/05/14 22:02:20;;;;;;;10.07;3.50;;;18.50;73.90;;;;;;10540439;28;20048;-64
2022/05/14 22:07:22;;;;;;;11.20;3.55;;;18.40;73.80;;;;;;10539912;28;20108;-64
2022/05/14 22:12:23;;;;;;;7.32;3.28;;;18.40;73.90;;;;;;10539770;28;20089;-59
2022/05/14 22:17:24;;;;;;;9.40;3.15;;;18.40;73.90;;;;;;10539702;28;20484;-66
2022/05/14 22:22:24;;;;;;;9.52;2.95;;;18.30;73.90;;;;;;10539745;28;20036;-62
2022/05/14 22:27:25;;;;;;;12.40;4.93;;;18.30;73.90;;;;;;10539143;28;20032;-65
2022/05/14 22:32:25;;;;;;;11.52;3.92;;;18.30;73.90;;;;;;10538947;28;20081;-59
2022/05/14 22:37:26;;;;;;;11.88;3.50;;;18.20;73.90;;;;;;10538910;28;20033;-59
2022/05/14 22:42:27;;;;;;;10.43;3.58;;;18.20;74.00;;;;;;10520590;28;20043;-67
2022/05/14 22:47:28;;;;;;;7.95;3.08;;;18.10;74.60;;;;;;10538405;28;20119;-59
2022/05/14 22:52:29;;;;;;;9.02;3.45;;;18.10;74.00;;;;;;10537953;28;20163;-60
2022/05/14 22:57:29;;;;;;;10.95;3.53;;;18.00;74.00;;;;;;10538350;28;20435;-61
2022/05/14 23:02:30;;;;;;;14.98;3.85;;;18.00;74.10;;;;;;10537083;28;20071;-58
2022/05/14 23:07:31;;;;;;;10.98;3.50;;;18.00;74.10;;;;;;10537620;28;20040;-64
2022/05/14 23:12:32;;;;;;;10.18;3.60;;;17.90;74.10;;;;;;10537600;28;20440;-66
2022/05/14 23:17:34;;;;;;;12.95;3.80;;;17.90;74.10;;;;;;10537301;28;20079;-64
2022/05/14 23:22:38;;;;;;;11.48;4.18;;;17.90;74.20;;;;;;10537363;28;20116;-58
2022/05/14 23:27:38;;;;;;;9.75;3.75;;;17.80;74.10;;;;;;10536897;28;20040;-58
2022/05/14 23:32:40;;;;;;;11.52;3.50;;;17.80;74.20;;;;;;10536717;28;20024;-64
2022/05/14 23:37:41;;;;;;;12.60;3.90;;;17.80;74.20;;;;;;10536788;28;20395;-64
2022/05/14 23:42:43;;;;;;;10.23;3.47;;;17.70;74.20;;;;;;10536665;28;20119;-58
2022/05/14 23:47:44;;;;;;;10.52;3.42;;;17.70;74.30;;;;;;10536198;28;20138;-58
2022/05/14 23:52:45;;;;;;;10.63;3.13;;;17.60;74.20;;;;;;10518161;28;20146;-62
